createdAt,value
2023-04-29T00:00:36.525Z,96453.28
2023-04-29T00:03:03.421Z,96435.34
2023-04-29T00:05:30.317Z,96452.06
2023-04-29T00:07:57.896Z,96449.41
2023-04-29T00:10:24.446Z,96444.72
2023-04-29T00:12:51.630Z,96439.53
2023-04-29T00:15:18.461Z,96430.63
2023-04-29T00:17:45.623Z,96422.00
2023-04-29T00:20:12.663Z,96412.59
2023-04-29T00:22:39.452Z,96431.34
2023-04-29T00:25:06.723Z,96402.34
2023-04-29T00:27:33.227Z,96419.59
2023-04-29T00:29:59.654Z,96416.88
2023-04-29T00:32:26.216Z,96426.72
2023-04-29T00:34:52.670Z,96426.19
2023-04-29T00:37:19.186Z,96407.66
2023-04-29T00:39:45.609Z,96424.31
2023-04-29T00:42:12.324Z,96411.41
2023-04-29T00:44:38.898Z,96415.66
2023-04-29T00:47:05.740Z,96417.72
2023-04-29T00:49:32.331Z,96413.03
2023-04-29T00:51:59.442Z,96417.50
2023-04-29T00:54:26.072Z,96417.44
2023-04-29T00:56:55.004Z,96425.59
2023-04-29T00:59:22.657Z,96410.84
2023-04-29T01:01:49.393Z,96419.38
2023-04-29T01:04:16.466Z,96421.06
2023-04-29T01:06:51.764Z,96422.09
2023-04-29T01:09:37.214Z,96406.50
2023-04-29T01:12:15.650Z,96425.50
2023-04-29T01:14:48.254Z,96417.25
2023-04-29T01:17:19.616Z,96419.69
2023-04-29T01:19:53.184Z,96425.81
2023-04-29T01:22:21.953Z,96416.34
2023-04-29T01:24:49.452Z,96421.59
2023-04-29T01:27:35.210Z,96422.16
2023-04-29T01:30:16.741Z,96422.75
2023-04-29T01:32:56.556Z,96427.75
2023-04-29T01:35:34.907Z,96420.66
2023-04-29T01:38:43.084Z,96424.72
2023-04-29T01:41:39.058Z,96422.31
2023-04-29T01:44:17.260Z,96431.78
2023-04-29T01:46:49.129Z,96421.47
2023-04-29T01:49:16.311Z,96419.00
2023-04-29T01:51:42.961Z,96416.41
2023-04-29T01:54:09.745Z,96419.66
2023-04-29T01:56:36.398Z,96416.00
2023-04-29T01:59:14.428Z,96422.84
2023-04-29T02:02:05.680Z,96417.59
2023-04-29T02:04:34.615Z,96412.16
2023-04-29T02:07:03.582Z,96410.25
2023-04-29T02:09:30.458Z,96414.47
2023-04-29T02:12:05.750Z,96412.97
2023-04-29T02:14:36.177Z,96415.50
2023-04-29T02:17:04.115Z,96418.22
2023-04-29T02:19:31.189Z,96416.13
2023-04-29T02:21:57.892Z,96412.69
2023-04-29T02:24:25.731Z,96421.44
2023-04-29T02:26:52.141Z,96423.28
2023-04-29T02:29:19.038Z,96418.25
2023-04-29T02:31:45.684Z,96423.56
2023-04-29T02:34:12.249Z,96432.53
2023-04-29T02:36:38.706Z,96428.63
2023-04-29T02:39:05.345Z,96426.00
2023-04-29T02:41:31.873Z,96431.00
2023-04-29T02:43:58.322Z,96425.75
2023-04-29T02:46:24.970Z,96423.91
2023-04-29T02:48:52.943Z,96419.41
2023-04-29T02:51:19.931Z,96419.72
2023-04-29T02:53:46.722Z,96417.63
2023-04-29T02:56:13.192Z,96424.22
2023-04-29T02:58:39.853Z,96428.72
2023-04-29T03:01:07.188Z,96423.94
2023-04-29T03:03:33.950Z,96433.75
2023-04-29T03:06:00.605Z,96433.16
2023-04-29T03:08:27.972Z,96414.47
2023-04-29T03:10:54.554Z,96425.81
2023-04-29T03:13:21.107Z,96430.50
2023-04-29T03:15:48.167Z,96413.63
2023-04-29T03:18:15.124Z,96425.28
2023-04-29T03:20:41.657Z,96419.44
2023-04-29T03:23:08.145Z,96425.75
2023-04-29T03:25:34.993Z,96415.50
2023-04-29T03:28:01.646Z,96410.78
2023-04-29T03:30:28.269Z,96419.75
2023-04-29T03:32:56.929Z,96411.81
2023-04-29T03:35:24.664Z,96427.38
2023-04-29T03:38:13.861Z,96418.16
2023-04-29T03:40:40.559Z,96419.94
2023-04-29T03:43:09.329Z,96423.72
2023-04-29T03:45:35.984Z,96424.78
2023-04-29T03:48:03.648Z,96425.34
2023-04-29T03:50:30.527Z,96420.56
2023-04-29T03:52:57.958Z,96435.56
2023-04-29T03:55:24.518Z,96426.38
2023-04-29T03:57:51.014Z,96437.03
2023-04-29T04:00:18.933Z,96446.94
2023-04-29T04:02:50.643Z,96437.94
2023-04-29T04:05:19.614Z,96418.75
2023-04-29T04:07:50.037Z,96436.00
2023-04-29T04:10:47.847Z,96430.09
2023-04-29T04:13:24.418Z,96430.38
2023-04-29T04:15:51.662Z,96442.44
2023-04-29T04:18:18.456Z,96439.91
2023-04-29T04:20:45.105Z,96437.81
2023-04-29T04:23:11.783Z,96446.03
2023-04-29T04:25:38.405Z,96438.88
2023-04-29T04:28:24.886Z,96446.84
2023-04-29T04:30:59.887Z,96447.72
2023-04-29T04:33:27.410Z,96454.19
2023-04-29T04:35:54.052Z,96457.56
2023-04-29T04:38:20.773Z,96460.09
2023-04-29T04:40:47.470Z,96437.78
2023-04-29T04:43:34.929Z,96449.56
2023-04-29T04:46:13.480Z,96461.22
2023-04-29T04:48:48.000Z,96463.88
2023-04-29T04:51:15.564Z,96459.31
2023-04-29T04:53:43.149Z,96442.88
2023-04-29T04:56:17.979Z,96471.88
2023-04-29T04:58:44.446Z,96472.22
2023-04-29T05:01:11.059Z,96468.81
2023-04-29T05:03:37.771Z,96467.56
2023-04-29T05:06:05.024Z,96455.84
2023-04-29T05:08:31.762Z,96470.41
2023-04-29T05:11:00.368Z,96463.34
2023-04-29T05:13:27.039Z,96467.47
2023-04-29T05:15:53.954Z,96462.50
2023-04-29T05:18:24.133Z,96467.72
2023-04-29T05:20:51.994Z,96471.59
2023-04-29T05:23:18.603Z,96469.63
2023-04-29T05:25:46.372Z,96476.91
2023-04-29T05:28:13.284Z,96482.56
2023-04-29T05:30:41.706Z,96482.56
2023-04-29T05:33:08.492Z,96481.47
2023-04-29T05:35:35.012Z,96483.03
2023-04-29T05:38:01.677Z,96484.44
2023-04-29T05:40:37.241Z,96487.31
2023-04-29T05:43:22.492Z,96485.38
2023-04-29T05:45:48.982Z,96486.47
2023-04-29T05:48:16.043Z,96486.47
2023-04-29T05:50:44.299Z,96488.50
2023-04-29T05:53:11.298Z,96488.72
2023-04-29T05:55:39.267Z,96492.69
2023-04-29T05:58:05.803Z,96499.25
2023-04-29T06:00:32.385Z,96505.88
2023-04-29T06:03:08.182Z,96506.81
2023-04-29T06:05:35.871Z,96511.16
2023-04-29T06:08:29.478Z,96512.84
2023-04-29T06:11:05.445Z,96516.34
2023-04-29T06:13:33.091Z,96512.06
2023-04-29T06:15:59.784Z,96516.94
2023-04-29T06:18:30.249Z,96515.66
2023-04-29T06:20:58.192Z,96519.78
2023-04-29T06:23:24.710Z,96526.28
2023-04-29T06:25:52.965Z,96514.38
2023-04-29T06:28:20.945Z,96519.53
2023-04-29T06:30:47.541Z,96527.13
2023-04-29T06:33:14.582Z,96526.84
2023-04-29T06:35:41.677Z,96539.63
2023-04-29T06:38:28.530Z,96534.75
2023-04-29T06:41:11.524Z,96531.78
2023-04-29T06:43:56.544Z,96544.47
2023-04-29T06:46:39.373Z,96535.09
2023-04-29T06:49:16.249Z,96544.72
2023-04-29T06:51:43.009Z,96543.38
2023-04-29T06:54:09.630Z,96542.09
2023-04-29T06:56:36.274Z,96543.34
2023-04-29T06:59:04.566Z,96546.66
2023-04-29T07:01:31.104Z,96545.59
2023-04-29T07:03:57.801Z,96534.25
2023-04-29T07:06:24.636Z,96552.59
2023-04-29T07:08:53.233Z,96547.34
2023-04-29T07:11:21.088Z,96549.09
2023-04-29T07:13:47.664Z,96535.56
2023-04-29T07:16:19.979Z,96539.72
2023-04-29T07:18:46.594Z,96556.09
2023-04-29T07:21:13.413Z,96552.91
2023-04-29T07:23:41.477Z,96541.69
2023-04-29T07:26:16.684Z,96547.88
2023-04-29T07:28:45.737Z,96546.50
2023-04-29T07:31:12.474Z,96554.94
2023-04-29T07:33:39.076Z,96542.56
2023-04-29T07:36:07.330Z,96550.06
2023-04-29T07:38:34.723Z,96545.72
2023-04-29T07:41:04.600Z,96551.47
2023-04-29T07:43:31.768Z,96529.22
2023-04-29T07:48:25.688Z,96550.41
2023-04-29T07:50:52.256Z,96550.59
2023-04-29T07:53:18.981Z,96545.09
2023-04-29T07:55:45.601Z,96551.19
2023-04-29T07:58:12.380Z,96547.59
2023-04-29T08:00:39.066Z,96552.03
2023-04-29T08:03:06.184Z,96562.22
2023-04-29T08:05:33.690Z,96569.00
2023-04-29T08:08:00.817Z,96566.69
2023-04-29T08:10:27.548Z,96562.47
2023-04-29T08:12:54.127Z,96576.66
2023-04-29T08:15:22.189Z,96564.22
2023-04-29T08:17:48.743Z,96565.47
2023-04-29T08:20:15.467Z,96563.03
2023-04-29T08:22:42.688Z,96573.56
2023-04-29T08:25:09.746Z,96575.78
2023-04-29T08:27:36.397Z,96577.78
2023-04-29T08:30:03.040Z,96583.56
2023-04-29T08:32:29.677Z,96561.56
2023-04-29T08:34:56.586Z,96575.50
2023-04-29T08:37:23.258Z,96580.31
2023-04-29T08:39:49.789Z,96580.50
2023-04-29T08:42:18.517Z,96583.78
2023-04-29T08:44:45.412Z,96584.38
2023-04-29T08:47:13.987Z,96591.22
2023-04-29T08:49:41.891Z,96587.81
2023-04-29T08:52:08.517Z,96593.59
2023-04-29T08:54:36.198Z,96592.34
2023-04-29T08:57:05.074Z,96592.00
2023-04-29T08:59:32.616Z,96596.72
2023-04-29T09:02:00.624Z,96601.72
2023-04-29T09:04:47.538Z,96601.75
2023-04-29T09:07:15.342Z,96601.78
2023-04-29T09:09:42.785Z,96607.59
2023-04-29T09:12:09.469Z,96604.97
2023-04-29T09:14:36.550Z,96605.50
2023-04-29T09:17:03.140Z,96606.78
2023-04-29T09:19:34.849Z,96605.19
2023-04-29T09:22:02.705Z,96616.56
2023-04-29T09:24:30.765Z,96616.28
2023-04-29T09:26:58.728Z,96617.63
2023-04-29T09:29:25.650Z,96611.53
2023-04-29T09:31:57.689Z,96619.75
2023-04-29T09:34:40.879Z,96627.94
2023-04-29T09:37:26.150Z,96628.72
2023-04-29T09:39:52.853Z,96629.75
2023-04-29T09:42:19.433Z,96619.19
2023-04-29T09:44:46.192Z,96628.31
2023-04-29T09:47:13.373Z,96619.69
2023-04-29T09:49:45.868Z,96637.25
2023-04-29T09:52:14.257Z,96636.13
2023-04-29T09:54:42.441Z,96644.53
2023-04-29T09:57:15.667Z,96631.63
2023-04-29T09:59:43.538Z,96637.38
2023-04-29T10:02:18.421Z,96644.06
2023-04-29T10:04:48.050Z,96648.03
2023-04-29T10:07:16.797Z,96645.88
2023-04-29T10:09:45.469Z,96640.91
2023-04-29T10:12:19.933Z,96642.38
2023-04-29T10:15:04.199Z,96654.22
2023-04-29T10:17:41.505Z,96648.22
2023-04-29T10:20:09.418Z,96657.28
2023-04-29T10:22:49.314Z,96655.66
2023-04-29T10:25:19.568Z,96662.00
2023-04-29T10:27:47.599Z,96668.09
2023-04-29T10:30:17.818Z,96662.50
2023-04-29T10:35:19.220Z,96659.88
2023-04-29T10:37:47.539Z,96670.44
2023-04-29T10:40:22.412Z,96670.41
2023-04-29T10:42:50.802Z,96671.50
2023-04-29T10:45:36.009Z,96666.78
2023-04-29T10:48:06.266Z,96673.13
2023-04-29T10:50:34.888Z,96655.94
2023-04-29T10:53:05.574Z,96662.03
2023-04-29T10:55:35.850Z,96652.97
2023-04-29T10:58:04.395Z,96666.75
2023-04-29T11:00:33.341Z,96661.75
2023-04-29T11:03:01.659Z,96661.47
2023-04-29T11:05:33.819Z,96670.69
2023-04-29T11:08:16.345Z,96669.94
2023-04-29T11:10:43.967Z,96670.75
2023-04-29T11:13:26.931Z,96672.84
2023-04-29T11:16:14.134Z,96665.44
2023-04-29T11:19:09.936Z,96669.94
2023-04-29T11:21:37.369Z,96666.78
2023-04-29T11:24:06.538Z,96667.56
2023-04-29T11:26:36.905Z,96668.38
2023-04-29T11:29:05.459Z,96670.97
2023-04-29T11:31:33.156Z,96674.19
2023-04-29T11:34:00.640Z,96668.13
2023-04-29T11:36:30.319Z,96673.66
2023-04-29T11:38:57.278Z,96673.38
2023-04-29T11:41:23.800Z,96671.72
2023-04-29T11:43:57.682Z,96672.56
2023-04-29T11:46:24.457Z,96672.53
2023-04-29T11:48:51.030Z,96680.06
2023-04-29T11:51:18.928Z,96683.06
2023-04-29T11:53:46.270Z,96683.41
2023-04-29T11:56:12.943Z,96677.56
2023-04-29T11:58:43.163Z,96681.75
2023-04-29T12:01:09.823Z,96687.91
2023-04-29T12:03:36.699Z,96692.09
2023-04-29T12:06:03.999Z,96690.41
2023-04-29T12:08:31.859Z,96690.09
2023-04-29T12:10:59.554Z,96682.91
2023-04-29T12:13:29.072Z,96690.13
2023-04-29T12:15:56.883Z,96694.69
2023-04-29T12:18:24.057Z,96698.06
2023-04-29T12:20:57.543Z,96690.66
2023-04-29T12:23:28.512Z,96678.44
2023-04-29T12:25:57.627Z,96685.81
2023-04-29T12:28:24.980Z,96693.72
2023-04-29T12:30:56.661Z,96689.00
2023-04-29T12:33:25.575Z,96688.47
2023-04-29T12:35:54.824Z,96695.63
2023-04-29T12:38:29.840Z,96689.25
2023-04-29T12:41:01.371Z,96696.38
2023-04-29T12:43:29.138Z,96690.84
2023-04-29T12:46:03.118Z,96705.09
2023-04-29T12:48:34.160Z,96694.03
2023-04-29T12:51:03.641Z,96700.38
2023-04-29T12:53:30.856Z,96708.44
2023-04-29T12:55:58.079Z,96702.47
2023-04-29T12:58:24.945Z,96702.75
2023-04-29T13:03:20.334Z,96694.53
2023-04-29T13:05:51.467Z,96694.22
2023-04-29T13:08:18.227Z,96702.41
2023-04-29T13:10:44.997Z,96708.53
2023-04-29T13:13:11.843Z,96707.13
2023-04-29T13:15:41.511Z,96691.00
2023-04-29T13:18:08.310Z,96704.59
2023-04-29T13:20:40.792Z,96702.75
2023-04-29T13:23:09.104Z,96696.63
2023-04-29T13:25:35.732Z,96695.53
2023-04-29T13:28:02.830Z,96688.78
2023-04-29T13:30:29.427Z,96689.53
2023-04-29T13:32:59.955Z,96700.50
2023-04-29T13:35:31.084Z,96691.84
2023-04-29T13:37:57.813Z,96695.56
2023-04-29T13:40:27.872Z,96694.94
2023-04-29T13:43:02.514Z,96684.69
2023-04-29T13:45:38.988Z,96687.97
2023-04-29T13:48:16.970Z,96684.06
2023-04-29T13:56:41.238Z,96690.00
2023-04-29T13:59:02.927Z,96681.38
2023-04-29T14:02:14.218Z,96699.53
2023-04-29T14:04:14.456Z,96696.59
2023-04-29T14:06:43.324Z,96706.38
2023-04-29T14:09:09.857Z,96703.53
2023-04-29T14:11:36.935Z,96706.47
2023-04-29T14:14:04.071Z,96701.66
2023-04-29T14:16:30.782Z,96694.81
2023-04-29T14:18:57.611Z,96708.03
2023-04-29T14:21:24.192Z,96695.56
2023-04-29T14:23:51.107Z,96710.41
2023-04-29T14:26:27.832Z,96696.66
2023-04-29T14:28:59.741Z,96720.94
2023-04-29T14:31:30.699Z,96714.94
2023-04-29T14:33:58.176Z,96713.84
2023-04-29T14:36:25.208Z,96710.66
2023-04-29T14:38:51.784Z,96723.31
2023-04-29T14:41:18.499Z,96710.38
2023-04-29T14:43:45.033Z,96724.97
2023-04-29T14:46:11.735Z,96727.59
2023-04-29T14:48:38.466Z,96725.72
2023-04-29T14:51:06.221Z,96737.88
2023-04-29T14:53:32.831Z,96745.00
2023-04-29T14:55:59.251Z,96742.09
2023-04-29T14:58:26.064Z,96734.66
2023-04-29T15:00:52.536Z,96745.41
2023-04-29T15:03:22.585Z,96755.06
2023-04-29T15:05:51.414Z,96741.31
2023-04-29T15:08:19.104Z,96746.91
2023-04-29T15:10:49.931Z,96749.75
2023-04-29T15:13:16.568Z,96741.09
2023-04-29T15:15:43.040Z,96755.59
2023-04-29T15:18:09.675Z,96748.75
2023-04-29T15:20:37.547Z,96750.81
2023-04-29T15:23:05.403Z,96751.88
2023-04-29T15:25:36.440Z,96747.66
2023-04-29T15:28:05.755Z,96754.03
2023-04-29T15:30:32.516Z,96753.53
2023-04-29T15:32:59.184Z,96754.06
2023-04-29T15:35:25.939Z,96767.25
2023-04-29T15:37:52.436Z,96775.94
2023-04-29T15:40:19.344Z,96780.84
2023-04-29T15:42:45.996Z,96783.34
2023-04-29T15:45:12.584Z,96771.88
2023-04-29T15:47:39.228Z,96797.19
2023-04-29T15:50:06.978Z,96795.59
2023-04-29T15:52:33.515Z,96784.41
2023-04-29T15:55:00.055Z,96799.81
2023-04-29T15:57:26.925Z,96786.72
2023-04-29T15:59:53.669Z,96791.28
2023-04-29T16:02:21.215Z,96799.22
2023-04-29T16:04:48.054Z,96803.78
2023-04-29T16:07:14.911Z,96801.25
2023-04-29T16:09:41.417Z,96799.75
2023-04-29T16:12:08.542Z,96797.03
2023-04-29T16:14:35.153Z,96785.53
2023-04-29T16:17:01.987Z,96810.59
2023-04-29T16:19:28.703Z,96817.28
2023-04-29T16:21:55.499Z,96799.38
2023-04-29T16:24:22.218Z,96811.72
2023-04-29T16:26:50.674Z,96818.66
2023-04-29T16:29:18.307Z,96816.22
2023-04-29T16:31:45.107Z,96819.22
2023-04-29T16:34:12.389Z,96788.16
2023-04-29T16:36:38.902Z,96827.25
2023-04-29T16:39:05.483Z,96824.59
2023-04-29T16:41:32.468Z,96811.88
2023-04-29T16:43:58.990Z,96822.50
2023-04-29T16:46:25.963Z,96835.38
2023-04-29T16:48:56.585Z,96833.00
2023-04-29T16:51:29.130Z,96830.28
2023-04-29T16:53:55.574Z,96812.97
2023-04-29T16:56:22.621Z,96831.56
2023-04-29T16:58:49.238Z,96834.03
2023-04-29T17:01:16.001Z,96844.31
2023-04-29T17:03:42.567Z,96841.97
2023-04-29T17:06:09.187Z,96828.09
2023-04-29T17:08:35.741Z,96833.56
2023-04-29T17:11:04.529Z,96850.47
2023-04-29T17:13:30.983Z,96850.22
2023-04-29T17:15:57.587Z,96836.72
2023-04-29T17:18:24.304Z,96851.66
2023-04-29T17:20:51.179Z,96849.97
2023-04-29T17:23:18.302Z,96853.84
2023-04-29T17:25:45.114Z,96824.78
2023-04-29T17:28:11.651Z,96839.91
2023-04-29T17:30:38.067Z,96858.06
2023-04-29T17:33:07.605Z,96859.91
2023-04-29T17:35:34.709Z,96841.16
2023-04-29T17:38:01.190Z,96849.69
2023-04-29T17:40:28.383Z,96874.34
2023-04-29T17:42:54.904Z,96853.25
2023-04-29T17:45:21.335Z,96869.75
2023-04-29T17:47:48.306Z,96857.44
2023-04-29T17:50:14.985Z,96876.22
2023-04-29T17:52:41.697Z,96869.69
2023-04-29T17:55:08.357Z,96885.19
2023-04-29T17:57:34.942Z,96859.66
2023-04-29T18:00:03.125Z,96884.41
2023-04-29T18:02:31.916Z,96865.69
2023-04-29T18:04:58.337Z,96882.75
2023-04-29T18:07:24.950Z,96869.13
2023-04-29T18:09:51.592Z,96888.88
2023-04-29T18:12:18.133Z,96880.28
2023-04-29T18:14:44.633Z,96894.44
2023-04-29T18:17:11.120Z,96891.16
2023-04-29T18:19:37.504Z,96886.69
2023-04-29T18:22:03.986Z,96881.09
2023-04-29T18:24:30.388Z,96897.47
2023-04-29T18:27:00.026Z,96886.81
2023-04-29T18:29:26.595Z,96896.66
2023-04-29T18:31:54.696Z,96900.41
2023-04-29T18:34:21.334Z,96871.38
2023-04-29T18:36:47.732Z,96897.97
2023-04-29T18:39:14.224Z,96889.81
2023-04-29T18:41:40.626Z,96902.97
2023-04-29T18:44:07.176Z,96909.53
2023-04-29T18:46:33.742Z,96910.66
2023-04-29T18:49:00.282Z,96893.78
2023-04-29T18:51:28.126Z,96904.31
2023-04-29T18:53:54.734Z,96906.19
2023-04-29T18:56:21.402Z,96915.34
2023-04-29T18:58:48.048Z,96890.06
2023-04-29T19:01:14.908Z,96926.19
2023-04-29T19:03:41.963Z,96911.06
2023-04-29T19:06:08.444Z,96909.38
2023-04-29T19:08:34.913Z,96929.34
2023-04-29T19:11:01.875Z,96928.50
2023-04-29T19:13:29.332Z,96920.91
2023-04-29T19:15:55.880Z,96936.28
2023-04-29T19:18:23.121Z,96943.28
2023-04-29T19:20:49.875Z,96910.22
2023-04-29T19:23:16.349Z,96920.50
2023-04-29T19:25:42.734Z,96953.50
2023-04-29T19:28:09.237Z,96938.59
2023-04-29T19:30:36.006Z,96950.78
2023-04-29T19:33:02.551Z,96922.22
2023-04-29T19:35:29.132Z,96948.50
2023-04-29T19:37:55.572Z,96956.41
2023-04-29T19:40:22.017Z,96913.25
2023-04-29T19:42:48.498Z,96965.56
2023-04-29T19:45:14.946Z,96945.41
2023-04-29T19:47:41.503Z,96964.97
2023-04-29T19:50:08.304Z,96945.47
2023-04-29T19:52:34.883Z,96953.03
2023-04-29T19:55:01.496Z,96943.53
2023-04-29T19:57:28.341Z,96933.81
2023-04-29T19:59:55.121Z,96955.59
2023-04-29T20:02:21.935Z,96963.63
2023-04-29T20:04:48.415Z,96957.28
2023-04-29T20:07:14.984Z,96959.44
2023-04-29T20:09:41.618Z,96961.78
2023-04-29T20:12:08.134Z,96949.09
2023-04-29T20:14:34.535Z,96959.28
2023-04-29T20:17:02.167Z,96948.53
2023-04-29T20:19:28.859Z,96946.94
2023-04-29T20:21:55.366Z,96953.84
2023-04-29T20:24:21.970Z,96973.66
2023-04-29T20:26:48.485Z,96926.63
2023-04-29T20:29:14.945Z,96981.63
2023-04-29T20:31:41.792Z,96976.34
2023-04-29T20:34:08.563Z,96980.59
2023-04-29T20:36:35.035Z,96964.94
2023-04-29T20:39:03.196Z,96978.31
2023-04-29T20:41:29.687Z,96978.41
2023-04-29T20:43:56.152Z,96983.81
2023-04-29T20:46:27.593Z,96968.31
2023-04-29T20:48:54.205Z,96979.53
2023-04-29T20:51:20.748Z,96969.56
2023-04-29T20:53:47.921Z,96967.44
2023-04-29T20:56:14.458Z,96983.41
2023-04-29T20:58:40.972Z,96989.13
2023-04-29T21:01:08.211Z,96956.06
2023-04-29T21:03:35.035Z,96995.38
2023-04-29T21:06:01.675Z,96983.53
2023-04-29T21:08:28.337Z,96979.44
2023-04-29T21:10:54.796Z,97000.53
2023-04-29T21:13:21.304Z,96987.09
2023-04-29T21:15:47.848Z,97014.59
2023-04-29T21:18:14.757Z,96993.72
2023-04-29T21:20:41.335Z,96999.97
2023-04-29T21:23:08.012Z,97001.59
2023-04-29T21:25:34.578Z,96982.66
2023-04-29T21:28:01.032Z,97010.94
2023-04-29T21:30:27.638Z,96989.72
2023-04-29T21:32:54.361Z,97001.81
2023-04-29T21:35:20.897Z,97017.00
2023-04-29T21:37:47.644Z,97015.38
2023-04-29T21:40:14.524Z,97024.06
2023-04-29T21:42:43.309Z,97020.19
2023-04-29T21:45:12.064Z,97018.00
2023-04-29T21:47:38.649Z,97001.91
2023-04-29T21:50:05.909Z,97020.41
2023-04-29T21:52:35.072Z,97012.00
2023-04-29T21:55:03.458Z,97035.94
2023-04-29T21:57:42.717Z,97009.09
2023-04-29T22:17:51.117Z,97036.41
2023-04-29T22:20:17.753Z,97034.63
2023-04-29T22:22:44.352Z,97026.06
2023-04-29T22:25:10.863Z,97033.31
2023-04-29T22:27:37.379Z,97030.69
2023-04-29T22:30:04.849Z,97024.19
2023-04-29T22:32:31.447Z,97040.41
2023-04-29T22:35:00.479Z,97042.09
2023-04-29T22:37:28.107Z,97033.09
2023-04-29T22:39:55.116Z,97037.63
2023-04-29T22:42:22.140Z,97028.28
2023-04-29T22:44:48.757Z,97043.03
2023-04-29T22:47:15.464Z,97052.84
2023-04-29T22:49:41.988Z,97050.41
2023-04-29T22:52:08.565Z,97051.47
2023-04-29T22:54:35.670Z,97047.03
2023-04-29T22:57:04.086Z,97047.03
2023-04-29T22:59:30.772Z,97035.34
2023-04-29T23:01:57.464Z,97052.00
2023-04-29T23:04:24.841Z,97051.34
2023-04-29T23:06:52.038Z,97055.47
2023-04-29T23:09:18.985Z,97050.91
2023-04-29T23:11:45.701Z,97052.13
2023-04-29T23:14:12.238Z,97049.97
2023-04-29T23:16:38.766Z,97050.31
2023-04-29T23:19:05.384Z,97057.28
2023-04-29T23:21:32.488Z,97045.19
2023-04-29T23:23:59.076Z,97032.06
2023-04-29T23:26:25.633Z,97044.69
2023-04-29T23:28:52.291Z,97053.25
2023-04-29T23:31:18.902Z,97048.47
2023-04-29T23:33:45.585Z,97049.75
2023-04-29T23:36:12.161Z,97051.47
2023-04-29T23:38:38.660Z,97051.47
2023-04-29T23:41:05.283Z,97048.84
2023-04-29T23:43:32.202Z,97051.56
2023-04-29T23:45:58.870Z,97050.56
2023-04-29T23:48:25.550Z,97054.19
2023-04-29T23:50:51.950Z,97049.41
2023-04-29T23:53:18.670Z,97045.63
2023-04-29T23:55:45.405Z,97037.16
2023-04-29T23:58:11.962Z,97041.50
